sensor_id;sensor_type;location;lat;lon;timestamp;P1;durP1;ratioP1;P2;durP2;ratioP2
4692;SDS011;11710;48.024;16.296;2022-10-31T05:55:56;9.68;;;7.70;;
4692;SDS011;11710;48.024;16.296;2022-10-31T05:58:23;12.82;;;8.05;;
4692;SDS011;11710;48.024;16.296;2022-10-31T06:00:50;14.35;;;8.38;;
4692;SDS011;11710;48.024;16.296;2022-10-31T06:03:17;11.90;;;7.50;;
4692;SDS011;11710;48.024;16.296;2022-10-31T06:05:44;8.85;;;7.82;;
4692;SDS011;11710;48.024;16.296;2022-10-31T06:08:11;10.27;;;8.35;;
4692;SDS011;11710;48.024;16.296;2022-10-31T06:10:38;11.35;;;9.07;;
4692;SDS011;11710;48.024;16.296;2022-10-31T06:13:06;12.18;;;8.90;;
4692;SDS011;11710;48.024;16.296;2022-10-31T06:15:33;11.15;;;8.18;;
4692;SDS011;11710;48.024;16.296;2022-10-31T06:18:01;10.45;;;8.90;;
4692;SDS011;11710;48.024;16.296;2022-10-31T06:20:29;13.13;;;8.68;;
4692;SDS011;11710;48.024;16.296;2022-10-31T06:22:57;13.23;;;8.68;;
4692;SDS011;11710;48.024;16.296;2022-10-31T06:25:24;11.52;;;9.23;;
4692;SDS011;11710;48.024;16.296;2022-10-31T06:27:51;11.10;;;8.63;;
4692;SDS011;11710;48.024;16.296;2022-10-31T06:30:20;10.25;;;8.30;;
4692;SDS011;11710;48.024;16.296;2022-10-31T06:32:47;9.38;;;7.97;;
4692;SDS011;11710;48.024;16.296;2022-10-31T06:35:14;14.02;;;8.68;;
4692;SDS011;11710;48.024;16.296;2022-10-31T06:37:41;13.25;;;9.32;;
4692;SDS011;11710;48.024;16.296;2022-10-31T06:40:09;10.98;;;8.45;;
4692;SDS011;11710;48.024;16.296;2022-10-31T06:42:37;10.73;;;8.63;;
4692;SDS011;11710;48.024;16.296;2022-10-31T06:45:05;9.95;;;7.90;;
4692;SDS011;11710;48.024;16.296;2022-10-31T06:47:34;11.13;;;8.40;;
4692;SDS011;11710;48.024;16.296;2022-10-31T06:50:05;12.27;;;8.77;;
4692;SDS011;11710;48.024;16.296;2022-10-31T06:52:33;15.32;;;10.25;;
4692;SDS011;11710;48.024;16.296;2022-10-31T06:55:00;11.93;;;8.70;;
4692;SDS011;11710;48.024;16.296;2022-10-31T06:57:27;13.10;;;9.02;;
4692;SDS011;11710;48.024;16.296;2022-10-31T06:59:54;13.43;;;8.98;;
4692;SDS011;11710;48.024;16.296;2022-10-31T07:02:21;10.95;;;8.90;;
4692;SDS011;11710;48.024;16.296;2022-10-31T07:04:49;10.10;;;8.85;;
4692;SDS011;11710;48.024;16.296;2022-10-31T07:07:16;11.05;;;9.15;;
4692;SDS011;11710;48.024;16.296;2022-10-31T07:09:46;15.88;;;10.13;;
4692;SDS011;11710;48.024;16.296;2022-10-31T07:12:13;15.48;;;9.68;;
4692;SDS011;11710;48.024;16.296;2022-10-31T07:14:41;13.57;;;9.65;;
4692;SDS011;11710;48.024;16.296;2022-10-31T07:17:08;17.67;;;12.02;;
4692;SDS011;11710;48.024;16.296;2022-10-31T07:19:35;19.05;;;11.73;;
4692;SDS011;11710;48.024;16.296;2022-10-31T07:22:04;22.58;;;15.25;;
4692;SDS011;11710;48.024;16.296;2022-10-31T07:24:31;21.80;;;11.50;;
4692;SDS011;11710;48.024;16.296;2022-10-31T07:26:58;18.02;;;13.65;;
4692;SDS011;11710;48.024;16.296;2022-10-31T07:29:25;13.85;;;10.93;;
4692;SDS011;11710;48.024;16.296;2022-10-31T07:31:52;13.27;;;9.70;;
4692;SDS011;11710;48.024;16.296;2022-10-31T07:34:20;10.45;;;8.63;;
4692;SDS011;11710;48.024;16.296;2022-10-31T07:36:47;13.43;;;8.68;;
4692;SDS011;11710;48.024;16.296;2022-10-31T07:39:15;13.35;;;8.68;;
4692;SDS011;11710;48.024;16.296;2022-10-31T07:41:52;12.18;;;8.48;;
4692;SDS011;11710;48.024;16.296;2022-10-31T07:44:23;14.65;;;11.73;;
4692;SDS011;11710;48.024;16.296;2022-10-31T07:46:50;15.77;;;10.20;;
4692;SDS011;11710;48.024;16.296;2022-10-31T07:49:17;14.25;;;10.77;;
4692;SDS011;11710;48.024;16.296;2022-10-31T07:51:44;13.23;;;8.75;;
4692;SDS011;11710;48.024;16.296;2022-10-31T07:54:11;14.35;;;9.52;;
4692;SDS011;11710;48.024;16.296;2022-10-31T07:56:40;11.55;;;8.93;;
4692;SDS011;11710;48.024;16.296;2022-10-31T07:59:07;10.50;;;8.50;;
4692;SDS011;11710;48.024;16.296;2022-10-31T08:01:34;10.88;;;8.90;;
4692;SDS011;11710;48.024;16.296;2022-10-31T08:04:01;12.45;;;8.45;;
4692;SDS011;11710;48.024;16.296;2022-10-31T08:06:29;9.93;;;8.68;;
4692;SDS011;11710;48.024;16.296;2022-10-31T08:08:56;13.27;;;9.52;;
4692;SDS011;11710;48.024;16.296;2022-10-31T08:11:24;11.10;;;9.40;;
4692;SDS011;11710;48.024;16.296;2022-10-31T08:13:53;13.73;;;9.80;;
4692;SDS011;11710;48.024;16.296;2022-10-31T08:16:21;12.93;;;9.50;;
4692;SDS011;11710;48.024;16.296;2022-10-31T08:18:48;10.60;;;9.50;;
4692;SDS011;11710;48.024;16.296;2022-10-31T08:21:16;13.32;;;10.10;;
4692;SDS011;11710;48.024;16.296;2022-10-31T08:23:44;8.65;;;7.40;;
4692;SDS011;11710;48.024;16.296;2022-10-31T08:26:12;7.43;;;6.68;;
4692;SDS011;11710;48.024;16.296;2022-10-31T08:28:40;9.50;;;7.30;;
4692;SDS011;11710;48.024;16.296;2022-10-31T08:31:08;7.97;;;7.03;;
4692;SDS011;11710;48.024;16.296;2022-10-31T08:33:35;8.63;;;6.85;;
4692;SDS011;11710;48.024;16.296;2022-10-31T08:36:03;9.85;;;7.68;;
4692;SDS011;11710;48.024;16.296;2022-10-31T08:38:30;8.35;;;7.50;;
4692;SDS011;11710;48.024;16.296;2022-10-31T08:40:57;8.75;;;7.85;;
4692;SDS011;11710;48.024;16.296;2022-10-31T08:43:24;10.25;;;8.35;;
4692;SDS011;11710;48.024;16.296;2022-10-31T08:45:51;7.90;;;7.10;;
4692;SDS011;11710;48.024;16.296;2022-10-31T08:48:21;8.23;;;7.32;;
4692;SDS011;11710;48.024;16.296;2022-10-31T08:50:48;10.02;;;8.15;;
4692;SDS011;11710;48.024;16.296;2022-10-31T08:53:16;11.98;;;8.13;;
4692;SDS011;11710;48.024;16.296;2022-10-31T08:55:45;10.48;;;9.40;;
4692;SDS011;11710;48.024;16.296;2022-10-31T08:58:13;11.65;;;8.82;;
4692;SDS011;11710;48.024;16.296;2022-10-31T09:00:42;9.65;;;8.32;;
4692;SDS011;11710;48.024;16.296;2022-10-31T09:03:10;10.05;;;8.43;;
4692;SDS011;11710;48.024;16.296;2022-10-31T09:05:40;11.88;;;9.05;;
4692;SDS011;11710;48.024;16.296;2022-10-31T09:08:07;9.48;;;8.57;;
4692;SDS011;11710;48.024;16.296;2022-10-31T09:10:35;10.95;;;8.70;;
4692;SDS011;11710;48.024;16.296;2022-10-31T09:13:03;10.70;;;8.32;;
4692;SDS011;11710;48.024;16.296;2022-10-31T09:15:32;11.07;;;9.55;;
4692;SDS011;11710;48.024;16.296;2022-10-31T09:18:00;10.05;;;8.82;;
4692;SDS011;11710;48.024;16.296;2022-10-31T09:20:27;11.02;;;9.55;;
4692;SDS011;11710;48.024;16.296;2022-10-31T09:22:56;10.57;;;8.60;;
4692;SDS011;11710;48.024;16.296;2022-10-31T09:25:24;11.98;;;9.13;;
4692;SDS011;11710;48.024;16.296;2022-10-31T09:27:55;11.52;;;10.10;;
4692;SDS011;11710;48.024;16.296;2022-10-31T09:30:22;11.98;;;9.18;;
4692;SDS011;11710;48.024;16.296;2022-10-31T09:32:54;11.88;;;9.55;;
4692;SDS011;11710;48.024;16.296;2022-10-31T09:35:22;11.80;;;9.80;;
4692;SDS011;11710;48.024;16.296;2022-10-31T09:37:53;10.52;;;9.43;;
4692;SDS011;11710;48.024;16.296;2022-10-31T09:40:22;11.65;;;10.00;;
4692;SDS011;11710;48.024;16.296;2022-10-31T09:42:56;10.13;;;9.00;;
4692;SDS011;11710;48.024;16.296;2022-10-31T09:45:29;9.48;;;8.48;;
4692;SDS011;11710;48.024;16.296;2022-10-31T09:48:05;9.38;;;8.38;;
4692;SDS011;11710;48.024;16.296;2022-10-31T09:50:51;10.30;;;8.68;;
4692;SDS011;11710;48.024;16.296;2022-10-31T09:53:22;10.88;;;9.60;;
4692;SDS011;11710;48.024;16.296;2022-10-31T09:55:54;11.27;;;9.10;;
4692;SDS011;11710;48.024;16.296;2022-10-31T09:58:23;10.57;;;9.50;;
4692;SDS011;11710;48.024;16.296;2022-10-31T10:00:52;11.55;;;9.82;;
4692;SDS011;11710;48.024;16.296;2022-10-31T10:03:28;14.60;;;10.07;;
4692;SDS011;11710;48.024;16.296;2022-10-31T10:06:03;10.75;;;9.65;;
4692;SDS011;11710;48.024;16.296;2022-10-31T10:08:37;10.73;;;9.63;;
4692;SDS011;11710;48.024;16.296;2022-10-31T10:11:13;10.93;;;9.88;;
4692;SDS011;11710;48.024;16.296;2022-10-31T10:13:55;11.48;;;9.90;;
4692;SDS011;11710;48.024;16.296;2022-10-31T10:16:36;12.10;;;10.80;;
4692;SDS011;11710;48.024;16.296;2022-10-31T10:19:24;11.63;;;9.93;;
4692;SDS011;11710;48.024;16.296;2022-10-31T10:22:00;10.82;;;9.73;;
4692;SDS011;11710;48.024;16.296;2022-10-31T10:24:41;10.75;;;9.75;;
4692;SDS011;11710;48.024;16.296;2022-10-31T10:27:22;12.38;;;10.75;;
4692;SDS011;11710;48.024;16.296;2022-10-31T10:29:57;11.65;;;10.45;;
4692;SDS011;11710;48.024;16.296;2022-10-31T10:32:28;12.82;;;10.73;;
4692;SDS011;11710;48.024;16.296;2022-10-31T10:34:58;13.80;;;11.85;;
4692;SDS011;11710;48.024;16.296;2022-10-31T10:37:30;11.30;;;10.20;;
4692;SDS011;11710;48.024;16.296;2022-10-31T10:40:05;12.65;;;10.02;;
4692;SDS011;11710;48.024;16.296;2022-10-31T10:42:36;12.85;;;11.05;;
4692;SDS011;11710;48.024;16.296;2022-10-31T10:45:21;12.38;;;11.18;;
4692;SDS011;11710;48.024;16.296;2022-10-31T10:48:06;16.80;;;11.00;;
4692;SDS011;11710;48.024;16.296;2022-10-31T10:50:40;13.35;;;11.35;;
4692;SDS011;11710;48.024;16.296;2022-10-31T10:53:15;11.57;;;10.38;;
4692;SDS011;11710;48.024;16.296;2022-10-31T10:56:04;11.25;;;10.15;;
4692;SDS011;11710;48.024;16.296;2022-10-31T10:58:44;13.70;;;11.02;;
4692;SDS011;11710;48.024;16.296;2022-10-31T11:01:12;12.45;;;11.13;;
4692;SDS011;11710;48.024;16.296;2022-10-31T11:03:41;13.05;;;11.02;;
4692;SDS011;11710;48.024;16.296;2022-10-31T11:06:16;12.80;;;11.43;;
4692;SDS011;11710;48.024;16.296;2022-10-31T11:08:47;13.45;;;11.43;;
4692;SDS011;11710;48.024;16.296;2022-10-31T11:11:19;14.73;;;12.10;;
4692;SDS011;11710;48.024;16.296;2022-10-31T11:13:57;13.02;;;11.63;;
4692;SDS011;11710;48.024;16.296;2022-10-31T11:16:30;15.00;;;12.30;;
4692;SDS011;11710;48.024;16.296;2022-10-31T11:19:05;13.65;;;11.40;;
4692;SDS011;11710;48.024;16.296;2022-10-31T11:21:34;14.35;;;11.77;;
4692;SDS011;11710;48.024;16.296;2022-10-31T11:24:02;15.65;;;13.48;;
4692;SDS011;11710;48.024;16.296;2022-10-31T11:26:30;17.48;;;13.68;;
4692;SDS011;11710;48.024;16.296;2022-10-31T11:29:01;15.70;;;13.15;;
4692;SDS011;11710;48.024;16.296;2022-10-31T11:31:29;19.00;;;13.70;;
4692;SDS011;11710;48.024;16.296;2022-10-31T11:33:58;14.43;;;12.30;;
4692;SDS011;11710;48.024;16.296;2022-10-31T11:36:27;15.20;;;12.90;;
4692;SDS011;11710;48.024;16.296;2022-10-31T11:38:57;14.57;;;13.05;;
4692;SDS011;11710;48.024;16.296;2022-10-31T11:41:28;17.20;;;14.60;;
4692;SDS011;11710;48.024;16.296;2022-10-31T11:43:57;17.10;;;13.85;;
4692;SDS011;11710;48.024;16.296;2022-10-31T11:46:30;18.52;;;14.18;;
4692;SDS011;11710;48.024;16.296;2022-10-31T11:49:02;15.80;;;14.10;;
4692;SDS011;11710;48.024;16.296;2022-10-31T11:51:32;18.80;;;14.18;;
4692;SDS011;11710;48.024;16.296;2022-10-31T11:54:01;15.48;;;13.32;;
4692;SDS011;11710;48.024;16.296;2022-10-31T11:56:40;17.33;;;14.07;;
4692;SDS011;11710;48.024;16.296;2022-10-31T11:59:15;16.38;;;14.10;;
4692;SDS011;11710;48.024;16.296;2022-10-31T12:01:54;15.80;;;13.35;;
4692;SDS011;11710;48.024;16.296;2022-10-31T12:04:30;20.98;;;14.30;;
4692;SDS011;11710;48.024;16.296;2022-10-31T12:07:03;14.43;;;12.95;;
4692;SDS011;11710;48.024;16.296;2022-10-31T12:09:32;16.50;;;14.25;;
4692;SDS011;11710;48.024;16.296;2022-10-31T12:12:08;19.35;;;14.98;;
4692;SDS011;11710;48.024;16.296;2022-10-31T12:14:55;18.45;;;14.32;;
4692;SDS011;11710;48.024;16.296;2022-10-31T12:17:36;17.17;;;14.82;;
4692;SDS011;11710;48.024;16.296;2022-10-31T12:20:12;15.85;;;14.05;;
4692;SDS011;11710;48.024;16.296;2022-10-31T12:22:50;18.00;;;15.02;;
4692;SDS011;11710;48.024;16.296;2022-10-31T12:25:28;18.17;;;14.65;;
4692;SDS011;11710;48.024;16.296;2022-10-31T12:28:12;17.55;;;15.52;;
4692;SDS011;11710;48.024;16.296;2022-10-31T12:30:56;19.00;;;15.40;;
4692;SDS011;11710;48.024;16.296;2022-10-31T12:33:34;21.00;;;15.25;;
4692;SDS011;11710;48.024;16.296;2022-10-31T12:39:12;19.25;;;14.77;;
4692;SDS011;11710;48.024;16.296;2022-10-31T12:41:51;22.27;;;15.85;;
4692;SDS011;11710;48.024;16.296;2022-10-31T12:47:30;17.77;;;14.75;;
4692;SDS011;11710;48.024;16.296;2022-10-31T12:50:27;17.77;;;14.70;;
4692;SDS011;11710;48.024;16.296;2022-10-31T12:53:05;20.65;;;15.70;;
4692;SDS011;11710;48.024;16.296;2022-10-31T12:55:44;18.83;;;16.15;;
4692;SDS011;11710;48.024;16.296;2022-10-31T12:58:20;20.98;;;16.73;;
4692;SDS011;11710;48.024;16.296;2022-10-31T13:00:51;21.77;;;17.42;;
4692;SDS011;11710;48.024;16.296;2022-10-31T13:03:26;24.17;;;17.75;;
4692;SDS011;11710;48.024;16.296;2022-10-31T13:06:03;26.92;;;17.52;;
4692;SDS011;11710;48.024;16.296;2022-10-31T13:08:38;26.85;;;19.73;;
4692;SDS011;11710;48.024;16.296;2022-10-31T13:11:10;27.55;;;19.88;;
4692;SDS011;11710;48.024;16.296;2022-10-31T13:13:41;25.73;;;18.63;;
4692;SDS011;11710;48.024;16.296;2022-10-31T13:16:22;26.23;;;18.25;;
4692;SDS011;11710;48.024;16.296;2022-10-31T13:18:54;22.55;;;17.33;;
4692;SDS011;11710;48.024;16.296;2022-10-31T13:21:26;26.55;;;18.65;;
4692;SDS011;11710;48.024;16.296;2022-10-31T13:23:57;23.27;;;18.70;;
4692;SDS011;11710;48.024;16.296;2022-10-31T13:26:31;25.55;;;18.33;;
4692;SDS011;11710;48.024;16.296;2022-10-31T13:29:05;28.02;;;18.98;;
4692;SDS011;11710;48.024;16.296;2022-10-31T13:31:40;25.88;;;18.30;;
4692;SDS011;11710;48.024;16.296;2022-10-31T13:34:09;28.23;;;20.52;;
4692;SDS011;11710;48.024;16.296;2022-10-31T13:36:45;24.65;;;18.40;;
4692;SDS011;11710;48.024;16.296;2022-10-31T13:39:22;25.17;;;18.67;;
4692;SDS011;11710;48.024;16.296;2022-10-31T13:41:54;27.50;;;19.30;;
4692;SDS011;11710;48.024;16.296;2022-10-31T13:44:29;31.38;;;21.40;;
4692;SDS011;11710;48.024;16.296;2022-10-31T13:46:57;25.92;;;19.20;;
4692;SDS011;11710;48.024;16.296;2022-10-31T13:49:39;30.38;;;21.75;;
4692;SDS011;11710;48.024;16.296;2022-10-31T13:52:15;28.98;;;20.48;;
4692;SDS011;11710;48.024;16.296;2022-10-31T13:54:48;28.27;;;21.02;;
4692;SDS011;11710;48.024;16.296;2022-10-31T13:57:23;31.40;;;22.50;;
4692;SDS011;11710;48.024;16.296;2022-10-31T13:59:58;31.23;;;22.42;;
4692;SDS011;11710;48.024;16.296;2022-10-31T14:02:27;29.27;;;20.48;;
4692;SDS011;11710;48.024;16.296;2022-10-31T14:04:57;28.30;;;20.30;;
4692;SDS011;11710;48.024;16.296;2022-10-31T14:07:30;34.17;;;21.10;;
4692;SDS011;11710;48.024;16.296;2022-10-31T14:10:01;30.67;;;21.92;;
4692;SDS011;11710;48.024;16.296;2022-10-31T14:12:31;31.52;;;23.20;;
4692;SDS011;11710;48.024;16.296;2022-10-31T14:15:04;33.30;;;21.95;;
4692;SDS011;11710;48.024;16.296;2022-10-31T14:17:44;31.58;;;21.63;;
4692;SDS011;11710;48.024;16.296;2022-10-31T14:20:31;37.25;;;21.75;;
4692;SDS011;11710;48.024;16.296;2022-10-31T14:23:11;37.25;;;21.23;;
4692;SDS011;11710;48.024;16.296;2022-10-31T14:25:39;32.85;;;21.10;;
4692;SDS011;11710;48.024;16.296;2022-10-31T14:28:18;32.95;;;21.70;;
4692;SDS011;11710;48.024;16.296;2022-10-31T14:30:53;32.00;;;21.63;;
4692;SDS011;11710;48.024;16.296;2022-10-31T14:33:21;32.63;;;22.85;;
4692;SDS011;11710;48.024;16.296;2022-10-31T14:35:53;34.63;;;22.15;;
4692;SDS011;11710;48.024;16.296;2022-10-31T14:38:31;32.55;;;21.58;;
4692;SDS011;11710;48.024;16.296;2022-10-31T14:41:13;34.67;;;23.58;;
4692;SDS011;11710;48.024;16.296;2022-10-31T14:44:07;37.08;;;22.98;;
4692;SDS011;11710;48.024;16.296;2022-10-31T14:46:59;30.00;;;21.80;;
4692;SDS011;11710;48.024;16.296;2022-10-31T14:49:37;38.35;;;22.23;;
4692;SDS011;11710;48.024;16.296;2022-10-31T14:52:17;33.00;;;22.98;;
4692;SDS011;11710;48.024;16.296;2022-10-31T14:54:49;35.25;;;22.90;;
4692;SDS011;11710;48.024;16.296;2022-10-31T14:57:19;39.22;;;21.70;;
4692;SDS011;11710;48.024;16.296;2022-10-31T14:59:50;35.75;;;23.52;;
4692;SDS011;11710;48.024;16.296;2022-10-31T15:02:23;37.50;;;22.77;;
4692;SDS011;11710;48.024;16.296;2022-10-31T15:04:54;34.40;;;22.48;;
4692;SDS011;11710;48.024;16.296;2022-10-31T15:07:24;29.90;;;20.08;;
4692;SDS011;11710;48.024;16.296;2022-10-31T15:09:57;32.83;;;19.60;;
4692;SDS011;11710;48.024;16.296;2022-10-31T15:12:27;29.42;;;19.58;;
4692;SDS011;11710;48.024;16.296;2022-10-31T15:14:55;31.33;;;20.05;;
4692;SDS011;11710;48.024;16.296;2022-10-31T15:17:23;35.88;;;21.73;;
4692;SDS011;11710;48.024;16.296;2022-10-31T15:19:52;37.45;;;23.80;;
4692;SDS011;11710;48.024;16.296;2022-10-31T15:22:22;30.92;;;21.25;;
4692;SDS011;11710;48.024;16.296;2022-10-31T15:24:50;33.30;;;21.15;;
4692;SDS011;11710;48.024;16.296;2022-10-31T15:27:23;33.65;;;22.33;;
4692;SDS011;11710;48.024;16.296;2022-10-31T15:29:51;31.60;;;20.80;;
4692;SDS011;11710;48.024;16.296;2022-10-31T15:32:20;33.70;;;22.30;;
4692;SDS011;11710;48.024;16.296;2022-10-31T15:34:49;38.95;;;22.00;;
4692;SDS011;11710;48.024;16.296;2022-10-31T15:37:18;31.25;;;20.80;;
4692;SDS011;11710;48.024;16.296;2022-10-31T15:39:46;33.58;;;21.67;;
4692;SDS011;11710;48.024;16.296;2022-10-31T15:42:17;34.30;;;21.35;;
4692;SDS011;11710;48.024;16.296;2022-10-31T15:44:49;36.05;;;22.60;;
4692;SDS011;11710;48.024;16.296;2022-10-31T15:47:26;34.08;;;20.80;;
4692;SDS011;11710;48.024;16.296;2022-10-31T15:49:57;38.40;;;21.15;;
4692;SDS011;11710;48.024;16.296;2022-10-31T15:52:27;35.17;;;21.17;;
4692;SDS011;11710;48.024;16.296;2022-10-31T15:54:58;32.85;;;19.02;;
4692;SDS011;11710;48.024;16.296;2022-10-31T15:57:28;34.35;;;19.10;;
4692;SDS011;11710;48.024;16.296;2022-10-31T15:59:57;31.35;;;19.88;;
4692;SDS011;11710;48.024;16.296;2022-10-31T16:02:27;34.35;;;20.58;;
4692;SDS011;11710;48.024;16.296;2022-10-31T16:04:55;33.92;;;20.77;;
4692;SDS011;11710;48.024;16.296;2022-10-31T16:07:23;34.17;;;20.73;;
4692;SDS011;11710;48.024;16.296;2022-10-31T16:09:52;34.80;;;19.58;;
4692;SDS011;11710;48.024;16.296;2022-10-31T16:12:21;29.92;;;20.35;;
4692;SDS011;11710;48.024;16.296;2022-10-31T16:14:49;37.53;;;21.88;;
4692;SDS011;11710;48.024;16.296;2022-10-31T16:17:20;35.55;;;20.10;;
4692;SDS011;11710;48.024;16.296;2022-10-31T16:19:51;29.55;;;19.05;;
4692;SDS011;11710;48.024;16.296;2022-10-31T16:22:22;33.28;;;21.15;;
4692;SDS011;11710;48.024;16.296;2022-10-31T16:24:53;35.72;;;20.23;;
4692;SDS011;11710;48.024;16.296;2022-10-31T16:27:24;32.63;;;20.13;;
4692;SDS011;11710;48.024;16.296;2022-10-31T16:29:54;32.28;;;20.30;;
4692;SDS011;11710;48.024;16.296;2022-10-31T16:32:31;33.72;;;19.48;;
4692;SDS011;11710;48.024;16.296;2022-10-31T16:35:00;42.70;;;21.05;;
4692;SDS011;11710;48.024;16.296;2022-10-31T16:37:43;33.78;;;20.02;;
4692;SDS011;11710;48.024;16.296;2022-10-31T16:40:11;33.97;;;20.17;;
4692;SDS011;11710;48.024;16.296;2022-10-31T16:42:39;41.65;;;22.17;;
4692;SDS011;11710;48.024;16.296;2022-10-31T16:45:07;42.25;;;22.73;;
4692;SDS011;11710;48.024;16.296;2022-10-31T16:47:42;41.20;;;22.35;;
4692;SDS011;11710;48.024;16.296;2022-10-31T16:50:13;40.45;;;23.90;;
4692;SDS011;11710;48.024;16.296;2022-10-31T16:52:42;49.60;;;24.10;;
4692;SDS011;11710;48.024;16.296;2022-10-31T16:55:11;46.53;;;25.50;;
4692;SDS011;11710;48.024;16.296;2022-10-31T16:57:40;47.53;;;26.50;;
4692;SDS011;11710;48.024;16.296;2022-10-31T17:00:14;46.45;;;26.02;;
4692;SDS011;11710;48.024;16.296;2022-10-31T17:02:45;46.38;;;27.00;;
4692;SDS011;11710;48.024;16.296;2022-10-31T17:05:15;45.08;;;25.60;;
4692;SDS011;11710;48.024;16.296;2022-10-31T17:07:44;53.42;;;27.40;;
4692;SDS011;11710;48.024;16.296;2022-10-31T17:10:12;51.42;;;26.80;;
4692;SDS011;11710;48.024;16.296;2022-10-31T17:12:41;58.33;;;28.08;;
4692;SDS011;11710;48.024;16.296;2022-10-31T17:15:15;59.30;;;29.90;;
4692;SDS011;11710;48.024;16.296;2022-10-31T17:17:54;75.60;;;34.65;;
4692;SDS011;11710;48.024;16.296;2022-10-31T17:20:23;54.75;;;28.90;;
4692;SDS011;11710;48.024;16.296;2022-10-31T17:22:51;53.33;;;30.77;;
4692;SDS011;11710;48.024;16.296;2022-10-31T17:25:19;57.88;;;32.28;;
4692;SDS011;11710;48.024;16.296;2022-10-31T17:27:48;58.97;;;30.48;;
4692;SDS011;11710;48.024;16.296;2022-10-31T17:30:16;62.90;;;29.90;;
4692;SDS011;11710;48.024;16.296;2022-10-31T17:32:45;54.58;;;26.08;;
4692;SDS011;11710;48.024;16.296;2022-10-31T17:35:15;40.95;;;23.55;;
4692;SDS011;11710;48.024;16.296;2022-10-31T17:37:43;33.15;;;20.23;;
4692;SDS011;11710;48.024;16.296;2022-10-31T17:40:11;36.42;;;19.92;;
4692;SDS011;11710;48.024;16.296;2022-10-31T17:42:40;31.05;;;19.73;;
4692;SDS011;11710;48.024;16.296;2022-10-31T17:45:08;33.22;;;20.33;;
4692;SDS011;11710;48.024;16.296;2022-10-31T17:47:37;34.05;;;19.17;;
4692;SDS011;11710;48.024;16.296;2022-10-31T17:50:04;29.70;;;18.48;;
4692;SDS011;11710;48.024;16.296;2022-10-31T17:52:34;26.65;;;15.90;;
4692;SDS011;11710;48.024;16.296;2022-10-31T17:55:01;27.80;;;16.75;;
4692;SDS011;11710;48.024;16.296;2022-10-31T17:57:31;25.80;;;16.88;;
4692;SDS011;11710;48.024;16.296;2022-10-31T18:00:00;28.85;;;17.80;;
4692;SDS011;11710;48.024;16.296;2022-10-31T18:02:27;28.92;;;19.20;;
4692;SDS011;11710;48.024;16.296;2022-10-31T18:04:54;31.13;;;19.58;;
4692;SDS011;11710;48.024;16.296;2022-10-31T18:07:21;33.80;;;19.95;;
4692;SDS011;11710;48.024;16.296;2022-10-31T18:09:50;33.78;;;20.08;;
4692;SDS011;11710;48.024;16.296;2022-10-31T18:12:17;35.70;;;21.38;;
4692;SDS011;11710;48.024;16.296;2022-10-31T18:14:44;34.40;;;20.98;;
4692;SDS011;11710;48.024;16.296;2022-10-31T18:17:11;32.03;;;19.85;;
4692;SDS011;11710;48.024;16.296;2022-10-31T18:19:38;36.70;;;22.27;;
4692;SDS011;11710;48.024;16.296;2022-10-31T18:22:05;37.22;;;21.38;;
4692;SDS011;11710;48.024;16.296;2022-10-31T18:24:32;37.33;;;20.25;;
4692;SDS011;11710;48.024;16.296;2022-10-31T18:27:01;33.65;;;21.65;;
4692;SDS011;11710;48.024;16.296;2022-10-31T18:29:28;33.42;;;20.45;;
4692;SDS011;11710;48.024;16.296;2022-10-31T18:31:55;34.20;;;19.23;;
4692;SDS011;11710;48.024;16.296;2022-10-31T18:34:22;28.63;;;17.63;;
4692;SDS011;11710;48.024;16.296;2022-10-31T18:36:50;30.05;;;17.92;;
4692;SDS011;11710;48.024;16.296;2022-10-31T18:39:17;27.50;;;16.73;;
4692;SDS011;11710;48.024;16.296;2022-10-31T18:41:44;35.55;;;17.98;;
4692;SDS011;11710;48.024;16.296;2022-10-31T18:44:13;30.52;;;17.83;;
4692;SDS011;11710;48.024;16.296;2022-10-31T18:46:40;29.88;;;17.15;;
4692;SDS011;11710;48.024;16.296;2022-10-31T18:49:07;29.38;;;16.65;;
4692;SDS011;11710;48.024;16.296;2022-10-31T18:51:35;29.15;;;17.20;;
4692;SDS011;11710;48.024;16.296;2022-10-31T18:54:02;29.05;;;16.75;;
4692;SDS011;11710;48.024;16.296;2022-10-31T18:56:29;27.17;;;16.30;;
4692;SDS011;11710;48.024;16.296;2022-10-31T18:58:57;24.63;;;16.15;;
4692;SDS011;11710;48.024;16.296;2022-10-31T19:01:28;30.33;;;17.10;;
4692;SDS011;11710;48.024;16.296;2022-10-31T19:03:56;25.58;;;16.20;;
4692;SDS011;11710;48.024;16.296;2022-10-31T19:06:24;25.05;;;16.77;;
4692;SDS011;11710;48.024;16.296;2022-10-31T19:08:58;24.63;;;16.25;;
4692;SDS011;11710;48.024;16.296;2022-10-31T19:11:27;25.33;;;15.85;;
4692;SDS011;11710;48.024;16.296;2022-10-31T19:13:57;23.17;;;14.25;;
4692;SDS011;11710;48.024;16.296;2022-10-31T19:16:24;23.73;;;15.15;;
4692;SDS011;11710;48.024;16.296;2022-10-31T19:18:54;29.77;;;16.65;;
4692;SDS011;11710;48.024;16.296;2022-10-31T19:21:24;25.40;;;16.23;;
4692;SDS011;11710;48.024;16.296;2022-10-31T19:23:52;21.38;;;14.40;;
4692;SDS011;11710;48.024;16.296;2022-10-31T19:26:20;22.83;;;14.63;;
4692;SDS011;11710;48.024;16.296;2022-10-31T19:28:48;23.63;;;15.48;;
4692;SDS011;11710;48.024;16.296;2022-10-31T19:31:16;25.45;;;15.23;;
4692;SDS011;11710;48.024;16.296;2022-10-31T19:33:43;26.40;;;17.20;;
4692;SDS011;11710;48.024;16.296;2022-10-31T19:36:12;26.05;;;16.58;;
4692;SDS011;11710;48.024;16.296;2022-10-31T19:38:42;22.35;;;14.88;;
4692;SDS011;11710;48.024;16.296;2022-10-31T19:41:12;21.95;;;14.20;;
4692;SDS011;11710;48.024;16.296;2022-10-31T19:43:40;21.63;;;12.20;;
4692;SDS011;11710;48.024;16.296;2022-10-31T19:46:09;24.20;;;13.07;;
4692;SDS011;11710;48.024;16.296;2022-10-31T19:48:38;18.42;;;11.90;;
4692;SDS011;11710;48.024;16.296;2022-10-31T19:51:06;21.42;;;12.95;;
4692;SDS011;11710;48.024;16.296;2022-10-31T19:53:36;18.30;;;12.30;;
4692;SDS011;11710;48.024;16.296;2022-10-31T19:56:08;20.00;;;12.57;;
4692;SDS011;11710;48.024;16.296;2022-10-31T19:58:37;20.30;;;12.25;;
4692;SDS011;11710;48.024;16.296;2022-10-31T20:01:05;18.65;;;12.05;;
4692;SDS011;11710;48.024;16.296;2022-10-31T20:03:33;26.98;;;13.98;;
4692;SDS011;11710;48.024;16.296;2022-10-31T20:06:03;27.90;;;15.20;;
4692;SDS011;11710;48.024;16.296;2022-10-31T20:08:31;22.63;;;12.52;;
4692;SDS011;11710;48.024;16.296;2022-10-31T20:11:02;21.52;;;12.95;;
4692;SDS011;11710;48.024;16.296;2022-10-31T20:13:30;20.52;;;12.77;;
4692;SDS011;11710;48.024;16.296;2022-10-31T20:15:58;20.00;;;12.23;;
4692;SDS011;11710;48.024;16.296;2022-10-31T20:18:27;19.50;;;12.18;;
4692;SDS011;11710;48.024;16.296;2022-10-31T20:20:59;20.67;;;12.38;;
4692;SDS011;11710;48.024;16.296;2022-10-31T20:23:27;19.08;;;12.45;;
4692;SDS011;11710;48.024;16.296;2022-10-31T20:25:54;19.63;;;12.88;;
4692;SDS011;11710;48.024;16.296;2022-10-31T20:28:22;20.17;;;13.27;;
4692;SDS011;11710;48.024;16.296;2022-10-31T20:30:49;17.58;;;11.60;;
4692;SDS011;11710;48.024;16.296;2022-10-31T20:33:16;21.60;;;12.50;;
4692;SDS011;11710;48.024;16.296;2022-10-31T20:35:43;17.83;;;12.38;;
4692;SDS011;11710;48.024;16.296;2022-10-31T20:38:11;18.80;;;12.52;;
4692;SDS011;11710;48.024;16.296;2022-10-31T20:40:41;17.52;;;12.73;;
4692;SDS011;11710;48.024;16.296;2022-10-31T20:43:10;17.30;;;12.35;;
4692;SDS011;11710;48.024;16.296;2022-10-31T20:45:41;19.25;;;12.88;;
4692;SDS011;11710;48.024;16.296;2022-10-31T20:48:09;22.58;;;14.10;;